sensor_id;sensor_type;location;lat;lon;timestamp;pressure;altitude;pressure_sealevel;temperature;humidity
69219;BME280;56232;53.384;-2.732;2023-10-19T00:00:53;97802.59;;;11.05;52.04
69219;BME280;56232;53.384;-2.732;2023-10-19T00:03:19;97799.26;;;11.78;51.86
69219;BME280;56232;53.384;-2.732;2023-10-19T00:05:44;97799.74;;;11.20;51.91
69219;BME280;56232;53.384;-2.732;2023-10-19T00:08:10;97797.30;;;11.91;51.97
69219;BME280;56232;53.384;-2.732;2023-10-19T00:10:35;97796.27;;;12.43;51.84
69219;BME280;56232;53.384;-2.732;2023-10-19T00:13:01;97793.34;;;11.38;51.43
69219;BME280;56232;53.384;-2.732;2023-10-19T00:15:27;97787.70;;;12.27;51.68
69219;BME280;56232;53.384;-2.732;2023-10-19T00:17:52;97786.38;;;11.05;51.72
69219;BME280;56232;53.384;-2.732;2023-10-19T00:20:18;97784.28;;;11.70;51.82
69219;BME280;56232;53.384;-2.732;2023-10-19T00:22:44;97781.94;;;11.12;52.10
69219;BME280;56232;53.384;-2.732;2023-10-19T00:25:09;97780.69;;;11.71;51.94
69219;BME280;56232;53.384;-2.732;2023-10-19T00:27:35;97780.30;;;12.37;52.31
69219;BME280;56232;53.384;-2.732;2023-10-19T00:30:01;97777.60;;;11.29;51.78
69219;BME280;56232;53.384;-2.732;2023-10-19T00:32:26;97774.17;;;11.15;51.88
69219;BME280;56232;53.384;-2.732;2023-10-19T00:34:52;97769.74;;;12.14;51.86
69219;BME280;56232;53.384;-2.732;2023-10-19T00:37:18;97767.97;;;12.08;52.21
69219;BME280;56232;53.384;-2.732;2023-10-19T00:39:43;97767.24;;;10.89;51.82
69219;BME280;56232;53.384;-2.732;2023-10-19T00:42:09;97765.04;;;11.88;52.28
69219;BME280;56232;53.384;-2.732;2023-10-19T00:44:34;97764.92;;;11.76;52.49
69219;BME280;56232;53.384;-2.732;2023-10-19T00:47:00;97762.60;;;11.79;52.51
69219;BME280;56232;53.384;-2.732;2023-10-19T00:49:26;97761.86;;;11.92;52.49
69219;BME280;56232;53.384;-2.732;2023-10-19T00:51:52;97761.19;;;11.96;52.43
69219;BME280;56232;53.384;-2.732;2023-10-19T00:54:20;97758.25;;;12.02;52.38
69219;BME280;56232;53.384;-2.732;2023-10-19T00:56:45;97748.69;;;11.86;52.49
69219;BME280;56232;53.384;-2.732;2023-10-19T00:59:08;97746.41;;;11.91;52.33
69219;BME280;56232;53.384;-2.732;2023-10-19T01:01:34;97745.83;;;11.97;52.62
69219;BME280;56232;53.384;-2.732;2023-10-19T01:03:59;97747.49;;;12.26;52.56
69219;BME280;56232;53.384;-2.732;2023-10-19T01:06:25;97750.25;;;11.44;52.39
69219;BME280;56232;53.384;-2.732;2023-10-19T01:08:51;97753.96;;;11.66;52.38
69219;BME280;56232;53.384;-2.732;2023-10-19T01:11:17;97747.75;;;11.94;52.01
69219;BME280;56232;53.384;-2.732;2023-10-19T01:13:42;97747.90;;;11.97;51.95
69219;BME280;56232;53.384;-2.732;2023-10-19T01:16:12;97747.41;;;12.73;51.61
69219;BME280;56232;53.384;-2.732;2023-10-19T01:18:33;97746.72;;;12.12;51.57
69219;BME280;56232;53.384;-2.732;2023-10-19T01:20:59;97742.30;;;12.02;51.43
69219;BME280;56232;53.384;-2.732;2023-10-19T01:23:24;97741.89;;;12.19;51.80
69219;BME280;56232;53.384;-2.732;2023-10-19T01:25:52;97743.87;;;12.33;51.70
69219;BME280;56232;53.384;-2.732;2023-10-19T01:28:16;97745.86;;;12.15;51.31
69219;BME280;56232;53.384;-2.732;2023-10-19T01:30:41;97743.84;;;12.01;51.49
69219;BME280;56232;53.384;-2.732;2023-10-19T01:33:07;97741.25;;;12.10;51.92
69219;BME280;56232;53.384;-2.732;2023-10-19T01:35:32;97740.38;;;11.97;51.42
69219;BME280;56232;53.384;-2.732;2023-10-19T01:37:58;97740.45;;;11.70;51.18
69219;BME280;56232;53.384;-2.732;2023-10-19T01:40:24;97738.04;;;11.48;51.71
69219;BME280;56232;53.384;-2.732;2023-10-19T01:42:50;97737.94;;;11.65;51.99
69219;BME280;56232;53.384;-2.732;2023-10-19T01:45:15;97737.56;;;11.86;51.98
69219;BME280;56232;53.384;-2.732;2023-10-19T01:47:41;97733.45;;;12.70;52.14
69219;BME280;56232;53.384;-2.732;2023-10-19T01:50:07;97729.85;;;12.45;51.87
69219;BME280;56232;53.384;-2.732;2023-10-19T01:52:32;97729.56;;;12.43;51.58
69219;BME280;56232;53.384;-2.732;2023-10-19T01:54:57;97730.26;;;12.03;51.40
69219;BME280;56232;53.384;-2.732;2023-10-19T01:57:23;97724.79;;;12.09;51.39
69219;BME280;56232;53.384;-2.732;2023-10-19T01:59:50;97723.86;;;12.70;51.27
69219;BME280;56232;53.384;-2.732;2023-10-19T02:02:14;97725.01;;;12.83;51.50
69219;BME280;56232;53.384;-2.732;2023-10-19T02:04:40;97722.52;;;12.88;51.17
69219;BME280;56232;53.384;-2.732;2023-10-19T02:07:06;97719.74;;;12.64;50.68
69219;BME280;56232;53.384;-2.732;2023-10-19T02:09:31;97715.47;;;12.47;50.93
69219;BME280;56232;53.384;-2.732;2023-10-19T02:11:57;97714.85;;;12.03;51.10
69219;BME280;56232;53.384;-2.732;2023-10-19T02:14:24;97715.54;;;11.98;51.28
69219;BME280;56232;53.384;-2.732;2023-10-19T02:16:50;97710.52;;;12.38;51.06
69219;BME280;56232;53.384;-2.732;2023-10-19T02:19:14;97706.98;;;12.17;51.15
69219;BME280;56232;53.384;-2.732;2023-10-19T02:21:40;97705.04;;;12.03;51.13
69219;BME280;56232;53.384;-2.732;2023-10-19T02:24:06;97702.39;;;11.80;51.63
69219;BME280;56232;53.384;-2.732;2023-10-19T02:26:31;97698.61;;;11.68;51.57
69219;BME280;56232;53.384;-2.732;2023-10-19T02:28:56;97693.95;;;11.45;51.71
69219;BME280;56232;53.384;-2.732;2023-10-19T02:31:23;97691.31;;;11.33;52.02
69219;BME280;56232;53.384;-2.732;2023-10-19T02:33:49;97686.17;;;11.37;52.31
69219;BME280;56232;53.384;-2.732;2023-10-19T02:36:14;97684.12;;;12.11;51.80
69219;BME280;56232;53.384;-2.732;2023-10-19T02:38:40;97682.80;;;12.00;51.74
69219;BME280;56232;53.384;-2.732;2023-10-19T02:41:05;97680.72;;;11.40;51.92
69219;BME280;56232;53.384;-2.732;2023-10-19T02:43:30;97674.69;;;11.19;51.74
69219;BME280;56232;53.384;-2.732;2023-10-19T02:45:56;97672.81;;;11.09;51.99
69219;BME280;56232;53.384;-2.732;2023-10-19T02:48:22;97670.57;;;11.57;52.07
69219;BME280;56232;53.384;-2.732;2023-10-19T02:50:47;97670.36;;;12.10;52.33
69219;BME280;56232;53.384;-2.732;2023-10-19T02:53:13;97668.83;;;12.30;52.21
69219;BME280;56232;53.384;-2.732;2023-10-19T02:55:39;97667.53;;;11.32;51.95
69219;BME280;56232;53.384;-2.732;2023-10-19T02:58:04;97662.69;;;11.33;52.16
69219;BME280;56232;53.384;-2.732;2023-10-19T03:00:30;97658.30;;;11.46;52.27
69219;BME280;56232;53.384;-2.732;2023-10-19T03:02:55;97653.71;;;11.72;52.16
69219;BME280;56232;53.384;-2.732;2023-10-19T03:05:21;97649.24;;;11.71;51.84
69219;BME280;56232;53.384;-2.732;2023-10-19T03:07:46;97646.39;;;11.77;51.59
69219;BME280;56232;53.384;-2.732;2023-10-19T03:10:12;97641.17;;;12.22;51.55
69219;BME280;56232;53.384;-2.732;2023-10-19T03:12:38;97642.23;;;11.61;51.59
69219;BME280;56232;53.384;-2.732;2023-10-19T03:15:04;97645.07;;;11.64;51.60
69219;BME280;56232;53.384;-2.732;2023-10-19T03:17:29;97649.47;;;11.64;51.67
69219;BME280;56232;53.384;-2.732;2023-10-19T03:19:55;97652.32;;;12.38;51.72
69219;BME280;56232;53.384;-2.732;2023-10-19T03:22:20;97661.98;;;11.70;51.33
69219;BME280;56232;53.384;-2.732;2023-10-19T03:24:46;97659.07;;;12.68;51.52
69219;BME280;56232;53.384;-2.732;2023-10-19T03:27:13;97660.30;;;12.34;51.92
69219;BME280;56232;53.384;-2.732;2023-10-19T03:29:37;97660.72;;;11.83;51.73
69219;BME280;56232;53.384;-2.732;2023-10-19T03:32:03;97661.64;;;12.01;51.85
69219;BME280;56232;53.384;-2.732;2023-10-19T03:34:29;97662.63;;;12.14;51.72
69219;BME280;56232;53.384;-2.732;2023-10-19T03:36:54;97656.31;;;11.69;51.53
69219;BME280;56232;53.384;-2.732;2023-10-19T03:39:20;97651.55;;;12.16;51.34
69219;BME280;56232;53.384;-2.732;2023-10-19T03:41:46;97648.63;;;12.13;51.36
69219;BME280;56232;53.384;-2.732;2023-10-19T03:44:11;97647.63;;;12.16;51.35
69219;BME280;56232;53.384;-2.732;2023-10-19T03:46:37;97648.89;;;12.19;51.07
69219;BME280;56232;53.384;-2.732;2023-10-19T03:49:03;97648.22;;;12.06;51.12
69219;BME280;56232;53.384;-2.732;2023-10-19T03:51:28;97640.97;;;12.71;51.22
69219;BME280;56232;53.384;-2.732;2023-10-19T03:53:54;97641.27;;;12.12;51.41
69219;BME280;56232;53.384;-2.732;2023-10-19T03:56:19;97641.42;;;12.27;51.36
69219;BME280;56232;53.384;-2.732;2023-10-19T03:58:45;97643.11;;;12.30;51.51
69219;BME280;56232;53.384;-2.732;2023-10-19T04:01:11;97645.14;;;12.43;51.36
69219;BME280;56232;53.384;-2.732;2023-10-19T04:03:36;97647.35;;;12.45;51.35
69219;BME280;56232;53.384;-2.732;2023-10-19T04:06:02;97647.41;;;12.57;51.27
69219;BME280;56232;53.384;-2.732;2023-10-19T04:08:27;97642.80;;;12.11;51.23
69219;BME280;56232;53.384;-2.732;2023-10-19T04:10:53;97634.55;;;12.14;51.32
69219;BME280;56232;53.384;-2.732;2023-10-19T04:13:18;97633.78;;;12.32;51.28
69219;BME280;56232;53.384;-2.732;2023-10-19T04:15:43;97631.84;;;12.32;51.30
69219;BME280;56232;53.384;-2.732;2023-10-19T04:18:08;97624.96;;;12.38;51.14
69219;BME280;56232;53.384;-2.732;2023-10-19T04:20:34;97625.98;;;12.85;51.18
69219;BME280;56232;53.384;-2.732;2023-10-19T04:22:59;97627.24;;;12.99;51.14
69219;BME280;56232;53.384;-2.732;2023-10-19T04:25:25;97629.18;;;13.00;50.97
69219;BME280;56232;53.384;-2.732;2023-10-19T04:27:51;97623.14;;;13.03;50.97
69219;BME280;56232;53.384;-2.732;2023-10-19T04:30:15;97624.08;;;12.43;50.62
69219;BME280;56232;53.384;-2.732;2023-10-19T04:32:40;97629.05;;;11.93;50.94
69219;BME280;56232;53.384;-2.732;2023-10-19T04:35:06;97635.64;;;12.52;51.00
69219;BME280;56232;53.384;-2.732;2023-10-19T04:37:31;97635.48;;;13.19;51.15
69219;BME280;56232;53.384;-2.732;2023-10-19T04:39:56;97635.04;;;13.37;50.85
69219;BME280;56232;53.384;-2.732;2023-10-19T04:42:22;97635.59;;;12.40;50.57
69219;BME280;56232;53.384;-2.732;2023-10-19T04:44:47;97634.99;;;12.31;50.67
69219;BME280;56232;53.384;-2.732;2023-10-19T04:47:12;97634.74;;;13.29;50.63
69219;BME280;56232;53.384;-2.732;2023-10-19T04:49:37;97633.08;;;13.26;50.57
69219;BME280;56232;53.384;-2.732;2023-10-19T04:52:03;97639.49;;;12.77;50.73
69219;BME280;56232;53.384;-2.732;2023-10-19T04:54:29;97639.40;;;13.30;50.90
69219;BME280;56232;53.384;-2.732;2023-10-19T04:56:53;97638.83;;;12.89;50.97
69219;BME280;56232;53.384;-2.732;2023-10-19T04:59:19;97641.22;;;13.45;50.67
69219;BME280;56232;53.384;-2.732;2023-10-19T05:01:45;97637.68;;;12.91;50.61
69219;BME280;56232;53.384;-2.732;2023-10-19T05:04:10;97635.30;;;12.49;50.84
69219;BME280;56232;53.384;-2.732;2023-10-19T05:06:36;97632.12;;;13.10;50.58
69219;BME280;56232;53.384;-2.732;2023-10-19T05:09:01;97629.08;;;13.56;50.70
69219;BME280;56232;53.384;-2.732;2023-10-19T05:11:27;97628.55;;;13.10;50.59
69219;BME280;56232;53.384;-2.732;2023-10-19T05:13:52;97625.05;;;13.62;50.86
69219;BME280;56232;53.384;-2.732;2023-10-19T05:16:18;97618.41;;;13.28;50.73
69219;BME280;56232;53.384;-2.732;2023-10-19T05:18:43;97616.18;;;12.90;50.75
69219;BME280;56232;53.384;-2.732;2023-10-19T05:21:09;97613.41;;;13.91;50.74
69219;BME280;56232;53.384;-2.732;2023-10-19T05:23:34;97613.43;;;13.97;50.63
69219;BME280;56232;53.384;-2.732;2023-10-19T05:26:02;97612.28;;;13.58;50.65
69219;BME280;56232;53.384;-2.732;2023-10-19T05:28:26;97613.03;;;13.26;50.78
69219;BME280;56232;53.384;-2.732;2023-10-19T05:30:52;97612.91;;;13.39;50.73
69219;BME280;56232;53.384;-2.732;2023-10-19T05:33:17;97615.93;;;13.89;50.32
69219;BME280;56232;53.384;-2.732;2023-10-19T05:35:42;97625.91;;;13.29;50.37
69219;BME280;56232;53.384;-2.732;2023-10-19T05:38:08;97622.04;;;13.26;50.49
69219;BME280;56232;53.384;-2.732;2023-10-19T05:40:33;97623.72;;;13.22;50.42
69219;BME280;56232;53.384;-2.732;2023-10-19T05:42:58;97629.08;;;13.18;50.41
69219;BME280;56232;53.384;-2.732;2023-10-19T05:45:24;97625.03;;;12.46;50.43
69219;BME280;56232;53.384;-2.732;2023-10-19T05:47:49;97620.19;;;13.03;50.61
69219;BME280;56232;53.384;-2.732;2023-10-19T05:50:14;97623.96;;;12.97;50.57
69219;BME280;56232;53.384;-2.732;2023-10-19T05:52:40;97621.76;;;13.45;50.58
69219;BME280;56232;53.384;-2.732;2023-10-19T05:55:05;97616.75;;;13.73;50.51
69219;BME280;56232;53.384;-2.732;2023-10-19T05:57:30;97618.45;;;13.11;50.91
69219;BME280;56232;53.384;-2.732;2023-10-19T05:59:55;97613.51;;;12.70;50.90
69219;BME280;56232;53.384;-2.732;2023-10-19T06:02:20;97607.93;;;13.24;50.76
69219;BME280;56232;53.384;-2.732;2023-10-19T06:04:46;97607.82;;;13.21;51.03
69219;BME280;56232;53.384;-2.732;2023-10-19T06:07:11;97610.00;;;12.72;51.01
69219;BME280;56232;53.384;-2.732;2023-10-19T06:09:36;97603.02;;;12.88;51.07
69219;BME280;56232;53.384;-2.732;2023-10-19T06:12:02;97602.00;;;13.05;51.07
69219;BME280;56232;53.384;-2.732;2023-10-19T06:14:27;97614.08;;;13.14;50.95
69219;BME280;56232;53.384;-2.732;2023-10-19T06:16:52;97616.74;;;13.76;50.87
69219;BME280;56232;53.384;-2.732;2023-10-19T06:19:17;97618.59;;;13.68;50.60
69219;BME280;56232;53.384;-2.732;2023-10-19T06:21:43;97612.51;;;13.65;50.69
69219;BME280;56232;53.384;-2.732;2023-10-19T06:24:08;97619.90;;;13.20;50.91
69219;BME280;56232;53.384;-2.732;2023-10-19T06:26:34;97617.00;;;13.24;50.69
69219;BME280;56232;53.384;-2.732;2023-10-19T06:28:59;97628.07;;;14.31;50.74
69219;BME280;56232;53.384;-2.732;2023-10-19T06:31:25;97633.25;;;13.35;50.74
69219;BME280;56232;53.384;-2.732;2023-10-19T06:33:51;97634.29;;;13.89;50.83
69219;BME280;56232;53.384;-2.732;2023-10-19T06:36:16;97637.45;;;14.10;50.98
69219;BME280;56232;53.384;-2.732;2023-10-19T06:38:42;97631.60;;;13.70;50.63
69219;BME280;56232;53.384;-2.732;2023-10-19T06:41:11;97635.02;;;13.71;50.65
69219;BME280;56232;53.384;-2.732;2023-10-19T06:43:33;97636.29;;;13.09;50.61
69219;BME280;56232;53.384;-2.732;2023-10-19T06:45:59;97630.50;;;13.60;50.38
69219;BME280;56232;53.384;-2.732;2023-10-19T06:48:24;97630.03;;;13.30;50.35
69219;BME280;56232;53.384;-2.732;2023-10-19T06:50:50;97632.36;;;13.65;50.29
69219;BME280;56232;53.384;-2.732;2023-10-19T06:53:15;97635.68;;;13.92;50.41
69219;BME280;56232;53.384;-2.732;2023-10-19T06:55:40;97636.03;;;13.34;50.43
69219;BME280;56232;53.384;-2.732;2023-10-19T06:58:06;97633.45;;;13.05;50.64
69219;BME280;56232;53.384;-2.732;2023-10-19T07:00:32;97632.85;;;13.39;50.89
69219;BME280;56232;53.384;-2.732;2023-10-19T07:02:58;97637.48;;;12.79;51.16
69219;BME280;56232;53.384;-2.732;2023-10-19T07:05:23;97642.21;;;13.39;51.42
69219;BME280;56232;53.384;-2.732;2023-10-19T07:07:50;97645.52;;;13.48;51.30
69219;BME280;56232;53.384;-2.732;2023-10-19T07:10:15;97637.81;;;13.43;51.32
69219;BME280;56232;53.384;-2.732;2023-10-19T07:12:41;97639.50;;;12.52;51.79
69219;BME280;56232;53.384;-2.732;2023-10-19T07:15:06;97637.66;;;13.75;51.76
69219;BME280;56232;53.384;-2.732;2023-10-19T07:17:30;97636.65;;;13.10;51.89
69219;BME280;56232;53.384;-2.732;2023-10-19T07:19:56;97633.31;;;13.38;51.27
69219;BME280;56232;53.384;-2.732;2023-10-19T07:22:21;97637.10;;;13.48;51.16
69219;BME280;56232;53.384;-2.732;2023-10-19T07:24:47;97641.95;;;13.39;50.95
69219;BME280;56232;53.384;-2.732;2023-10-19T07:27:13;97643.17;;;13.45;51.18
69219;BME280;56232;53.384;-2.732;2023-10-19T07:29:38;97645.47;;;13.42;51.02
69219;BME280;56232;53.384;-2.732;2023-10-19T07:32:04;97642.66;;;13.38;51.22
69219;BME280;56232;53.384;-2.732;2023-10-19T07:34:31;97641.40;;;13.56;51.35
69219;BME280;56232;53.384;-2.732;2023-10-19T07:36:55;97642.64;;;14.08;51.30
69219;BME280;56232;53.384;-2.732;2023-10-19T07:39:20;97640.29;;;13.69;51.53
69219;BME280;56232;53.384;-2.732;2023-10-19T07:41:45;97640.62;;;13.23;50.77
69219;BME280;56232;53.384;-2.732;2023-10-19T07:44:10;97638.81;;;13.28;51.47
69219;BME280;56232;53.384;-2.732;2023-10-19T07:46:36;97636.41;;;12.98;51.58
69219;BME280;56232;53.384;-2.732;2023-10-19T07:49:02;97636.31;;;13.61;51.16
69219;BME280;56232;53.384;-2.732;2023-10-19T07:51:27;97636.92;;;14.26;51.17
69219;BME280;56232;53.384;-2.732;2023-10-19T07:53:53;97637.44;;;13.87;51.06
69219;BME280;56232;53.384;-2.732;2023-10-19T07:56:33;97636.93;;;14.44;50.92
69219;BME280;56232;53.384;-2.732;2023-10-19T07:58:44;97637.58;;;14.38;50.77
69219;BME280;56232;53.384;-2.732;2023-10-19T08:01:10;97634.51;;;13.67;50.71
69219;BME280;56232;53.384;-2.732;2023-10-19T08:03:35;97632.90;;;13.63;50.34
69219;BME280;56232;53.384;-2.732;2023-10-19T08:06:01;97632.64;;;14.09;50.88
69219;BME280;56232;53.384;-2.732;2023-10-19T08:08:26;97634.57;;;14.14;51.18
69219;BME280;56232;53.384;-2.732;2023-10-19T08:10:52;97635.79;;;14.14;51.17
69219;BME280;56232;53.384;-2.732;2023-10-19T08:13:17;97635.20;;;14.17;51.40
69219;BME280;56232;53.384;-2.732;2023-10-19T08:15:42;97634.46;;;14.33;51.26
69219;BME280;56232;53.384;-2.732;2023-10-19T08:18:08;97631.37;;;14.47;51.25
69219;BME280;56232;53.384;-2.732;2023-10-19T08:20:33;97629.35;;;14.01;51.44
69219;BME280;56232;53.384;-2.732;2023-10-19T08:23:00;97628.55;;;13.61;51.56
69219;BME280;56232;53.384;-2.732;2023-10-19T08:25:24;97628.95;;;15.01;51.40
69219;BME280;56232;53.384;-2.732;2023-10-19T08:27:50;97630.60;;;15.22;51.10
69219;BME280;56232;53.384;-2.732;2023-10-19T08:30:16;97623.95;;;14.33;51.27
69219;BME280;56232;53.384;-2.732;2023-10-19T08:32:41;97625.09;;;14.53;51.12
69219;BME280;56232;53.384;-2.732;2023-10-19T08:35:07;97628.02;;;14.58;50.84
69219;BME280;56232;53.384;-2.732;2023-10-19T08:37:32;97630.48;;;14.44;51.14
69219;BME280;56232;53.384;-2.732;2023-10-19T08:39:57;97632.63;;;14.46;50.51
69219;BME280;56232;53.384;-2.732;2023-10-19T08:42:23;97631.21;;;14.29;50.80
69219;BME280;56232;53.384;-2.732;2023-10-19T08:44:48;97636.28;;;14.21;51.26
69219;BME280;56232;53.384;-2.732;2023-10-19T08:47:14;97632.92;;;14.32;51.29
69219;BME280;56232;53.384;-2.732;2023-10-19T08:49:39;97632.80;;;14.26;51.02
69219;BME280;56232;53.384;-2.732;2023-10-19T08:52:06;97632.24;;;14.77;51.33
69219;BME280;56232;53.384;-2.732;2023-10-19T08:54:30;97629.89;;;14.32;50.99
69219;BME280;56232;53.384;-2.732;2023-10-19T08:56:56;97623.82;;;14.37;51.43
69219;BME280;56232;53.384;-2.732;2023-10-19T08:59:22;97627.21;;;14.68;51.24
69219;BME280;56232;53.384;-2.732;2023-10-19T09:01:47;97634.56;;;14.25;51.06
69219;BME280;56232;53.384;-2.732;2023-10-19T09:04:13;97641.71;;;15.04;51.06
69219;BME280;56232;53.384;-2.732;2023-10-19T09:06:38;97649.62;;;15.26;51.51
69219;BME280;56232;53.384;-2.732;2023-10-19T09:09:04;97652.35;;;15.27;51.53
69219;BME280;56232;53.384;-2.732;2023-10-19T09:11:30;97647.30;;;16.36;50.88
69219;BME280;56232;53.384;-2.732;2023-10-19T09:13:54;97652.10;;;16.47;51.03
69219;BME280;56232;53.384;-2.732;2023-10-19T09:16:21;97652.16;;;16.63;50.46
69219;BME280;56232;53.384;-2.732;2023-10-19T09:18:46;97654.27;;;17.12;51.15
69219;BME280;56232;53.384;-2.732;2023-10-19T09:21:14;97648.92;;;18.79;51.15
69219;BME280;56232;53.384;-2.732;2023-10-19T09:23:38;97643.83;;;19.37;51.48
69219;BME280;56232;53.384;-2.732;2023-10-19T09:26:03;97641.76;;;19.85;50.23
69219;BME280;56232;53.384;-2.732;2023-10-19T09:28:28;97639.66;;;19.85;50.33
69219;BME280;56232;53.384;-2.732;2023-10-19T09:30:53;97640.49;;;19.99;50.04
69219;BME280;56232;53.384;-2.732;2023-10-19T09:33:20;97635.58;;;20.73;49.78
69219;BME280;56232;53.384;-2.732;2023-10-19T09:35:45;97642.31;;;21.26;50.90
69219;BME280;56232;53.384;-2.732;2023-10-19T09:38:10;97648.02;;;20.63;49.06
69219;BME280;56232;53.384;-2.732;2023-10-19T09:40:35;97646.36;;;21.07;48.78
69219;BME280;56232;53.384;-2.732;2023-10-19T09:43:04;97653.41;;;20.83;47.64
69219;BME280;56232;53.384;-2.732;2023-10-19T09:45:27;97657.27;;;21.22;47.30
69219;BME280;56232;53.384;-2.732;2023-10-19T09:47:53;97655.48;;;21.25;47.80
69219;BME280;56232;53.384;-2.732;2023-10-19T09:50:17;97656.83;;;20.41;47.52
69219;BME280;56232;53.384;-2.732;2023-10-19T09:52:43;97659.47;;;20.81;47.88
69219;BME280;56232;53.384;-2.732;2023-10-19T09:55:14;97656.54;;;20.34;49.24
69219;BME280;56232;53.384;-2.732;2023-10-19T09:57:37;97656.56;;;21.02;48.50
69219;BME280;56232;53.384;-2.732;2023-10-19T10:00:02;97658.87;;;20.45;47.88
69219;BME280;56232;53.384;-2.732;2023-10-19T10:02:27;97663.68;;;19.78;47.05
69219;BME280;56232;53.384;-2.732;2023-10-19T10:04:51;97663.77;;;20.18;48.00
69219;BME280;56232;53.384;-2.732;2023-10-19T10:07:17;97664.00;;;20.41;48.68
69219;BME280;56232;53.384;-2.732;2023-10-19T10:09:42;97663.44;;;20.39;47.65
69219;BME280;56232;53.384;-2.732;2023-10-19T10:14:32;97676.80;;;21.29;47.15
69219;BME280;56232;53.384;-2.732;2023-10-19T10:17:01;97674.51;;;19.73;46.48
69219;BME280;56232;53.384;-2.732;2023-10-19T10:19:23;97677.52;;;20.70;47.65
69219;BME280;56232;53.384;-2.732;2023-10-19T10:24:14;97679.00;;;20.62;46.65
69219;BME280;56232;53.384;-2.732;2023-10-19T10:29:11;97684.05;;;20.81;47.14
69219;BME280;56232;53.384;-2.732;2023-10-19T10:31:35;97680.62;;;20.38;47.97
69219;BME280;56232;53.384;-2.732;2023-10-19T10:33:55;97688.32;;;19.99;47.66
69219;BME280;56232;53.384;-2.732;2023-10-19T10:36:22;97690.03;;;19.67;48.07
69219;BME280;56232;53.384;-2.732;2023-10-19T10:38:48;97695.81;;;19.84;47.71
69219;BME280;56232;53.384;-2.732;2023-10-19T10:41:13;97699.50;;;19.81;47.79
69219;BME280;56232;53.384;-2.732;2023-10-19T10:46:04;97704.59;;;19.90;47.82
69219;BME280;56232;53.384;-2.732;2023-10-19T10:48:28;97697.43;;;20.08;45.28
69219;BME280;56232;53.384;-2.732;2023-10-19T10:50:53;97702.12;;;19.65;47.76
69219;BME280;56232;53.384;-2.732;2023-10-19T10:53:19;97699.14;;;19.46;48.46
69219;BME280;56232;53.384;-2.732;2023-10-19T10:55:44;97702.50;;;19.61;48.51
69219;BME280;56232;53.384;-2.732;2023-10-19T10:58:15;97705.11;;;20.18;48.79
69219;BME280;56232;53.384;-2.732;2023-10-19T11:00:41;97704.48;;;20.26;48.24
69219;BME280;56232;53.384;-2.732;2023-10-19T11:03:02;97704.95;;;19.31;47.40
69219;BME280;56232;53.384;-2.732;2023-10-19T11:05:26;97704.04;;;19.86;46.70
69219;BME280;56232;53.384;-2.732;2023-10-19T11:10:26;97717.43;;;20.65;47.81
69219;BME280;56232;53.384;-2.732;2023-10-19T11:12:42;97713.71;;;20.85;47.18
69219;BME280;56232;53.384;-2.732;2023-10-19T11:15:09;97714.62;;;20.66;48.27
69219;BME280;56232;53.384;-2.732;2023-10-19T11:17:44;97712.95;;;20.07;48.11
69219;BME280;56232;53.384;-2.732;2023-10-19T11:19:59;97714.31;;;20.80;48.28
69219;BME280;56232;53.384;-2.732;2023-10-19T11:22:25;97709.06;;;20.17;48.08
69219;BME280;56232;53.384;-2.732;2023-10-19T11:24:51;97712.48;;;20.43;47.78
69219;BME280;56232;53.384;-2.732;2023-10-19T11:27:24;97709.83;;;19.39;47.52
69219;BME280;56232;53.384;-2.732;2023-10-19T11:32:06;97709.62;;;19.48;47.04
69219;BME280;56232;53.384;-2.732;2023-10-19T11:34:32;97714.53;;;18.97;47.59
69219;BME280;56232;53.384;-2.732;2023-10-19T11:36:58;97715.73;;;18.84;46.89
69219;BME280;56232;53.384;-2.732;2023-10-19T11:39:23;97721.05;;;19.52;47.04
69219;BME280;56232;53.384;-2.732;2023-10-19T11:41:48;97719.40;;;19.50;48.17
69219;BME280;56232;53.384;-2.732;2023-10-19T11:44:14;97717.80;;;18.90;48.48
69219;BME280;56232;53.384;-2.732;2023-10-19T11:46:39;97713.85;;;18.77;47.77
69219;BME280;56232;53.384;-2.732;2023-10-19T11:49:05;97714.10;;;18.30;49.06
69219;BME280;56232;53.384;-2.732;2023-10-19T11:51:30;97712.58;;;19.49;49.13
69219;BME280;56232;53.384;-2.732;2023-10-19T11:53:55;97708.41;;;19.34;48.31
69219;BME280;56232;53.384;-2.732;2023-10-19T11:56:20;97708.01;;;19.67;47.69
69219;BME280;56232;53.384;-2.732;2023-10-19T11:58:46;97706.93;;;19.72;48.94
69219;BME280;56232;53.384;-2.732;2023-10-19T12:01:11;97706.66;;;18.90;48.10
69219;BME280;56232;53.384;-2.732;2023-10-19T12:03:37;97706.04;;;19.32;47.09
69219;BME280;56232;53.384;-2.732;2023-10-19T12:06:02;97707.91;;;18.88;48.71
69219;BME280;56232;53.384;-2.732;2023-10-19T12:08:27;97710.87;;;19.57;47.38
69219;BME280;56232;53.384;-2.732;2023-10-19T12:10:54;97712.19;;;20.01;46.91
69219;BME280;56232;53.384;-2.732;2023-10-19T12:13:19;97708.51;;;19.08;48.22
69219;BME280;56232;53.384;-2.732;2023-10-19T12:15:44;97704.96;;;19.61;46.03
69219;BME280;56232;53.384;-2.732;2023-10-19T12:18:10;97706.56;;;19.40;47.95
69219;BME280;56232;53.384;-2.732;2023-10-19T12:20:35;97703.53;;;19.55;47.49
69219;BME280;56232;53.384;-2.732;2023-10-19T12:23:01;97700.03;;;20.09;46.30
69219;BME280;56232;53.384;-2.732;2023-10-19T12:25:26;97696.34;;;19.66;46.95
69219;BME280;56232;53.384;-2.732;2023-10-19T12:27:53;97691.83;;;20.55;47.98
69219;BME280;56232;53.384;-2.732;2023-10-19T12:30:17;97693.22;;;19.91;47.72
69219;BME280;56232;53.384;-2.732;2023-10-19T12:32:43;97688.65;;;20.88;47.49
69219;BME280;56232;53.384;-2.732;2023-10-19T12:35:08;97686.03;;;20.53;44.35
69219;BME280;56232;53.384;-2.732;2023-10-19T12:37:33;97679.98;;;21.56;46.28
69219;BME280;56232;53.384;-2.732;2023-10-19T12:39:59;97676.65;;;20.74;46.59
69219;BME280;56232;53.384;-2.732;2023-10-19T12:42:24;97681.20;;;22.15;46.26
69219;BME280;56232;53.384;-2.732;2023-10-19T12:44:50;97675.45;;;21.25;46.00
69219;BME280;56232;53.384;-2.732;2023-10-19T12:47:15;97675.44;;;21.11;44.15
69219;BME280;56232;53.384;-2.732;2023-10-19T12:49:41;97672.50;;;21.02;45.03
69219;BME280;56232;53.384;-2.732;2023-10-19T12:52:06;97667.96;;;20.71;45.94
69219;BME280;56232;53.384;-2.732;2023-10-19T12:54:31;97667.44;;;21.26;44.77